Current | Forecast
Updated: 1:20 PM EEST on April 20, 2018
Observed at Samos, Greece
Temperature 22°C
Humidity 43%
Dew Point 9°C
Wind NNW at 28 km/h
Pressure 1012 hPa (Steady)
Conditions Partly Cloudy
Visibility 10.0 kilometers
UV 10 out of 16
Clouds (FEW) : 609 m
Yesterday's Maximum 22°C
Yesterday's Minimum 16°C approx.
Yesterday's Cooling Degree Days 1 approx.
Sunrise6:32 AM EEST
Sunset7:53 PM EEST
Moon Rise9:58 AM EEST
Moon Set
Moon PhaseMoon Phase
Waxing Crescent
Raw METARMETAR LGSM 201020Z 33015KT 9999 FEW020 22/09 Q1012


Monday
. High: 71° F.
Tuesday
. High: 77° F.
Wednesday
. High: 77° F.
Thursday
. High: 78° F.
Friday
. High: 78° F.
Saturday
. High: 73° F.
Sunday
. High: 73° F.
Monday
. High: 69° F.

Units: English | Metric

Find the Weather for any City, State or Zipcode, or Country:

U.S. State List | Severe Weather | Tropical Storms | Ski Conditions
United States | Canada | Central America | South America | Asia | Europe | Australia | Africa | Islands

Weather Underground

© Copyright 2018
The Weather Company, LLC